Terminal Aerodrome Forecast
Issued by NWS Milwaukee/Sullivan, WI

Home | Current Version | Previous Version | Text Only | Print | Product List | Glossary On
Versions: 1 2 3 4 5 6 7 8 9 10 11 12 13 14 15 16 17 18 19 20 21 22 23 24 25 26
000
FTUS43 KMKX 271122
TAFMSN
TAF
KMSN 271122Z 2712/2812 00000KT 1/2SM FG BKN002
      TEMPO 2712/2714 3/4SM BR SCT002
     FM271400 VRB03KT P6SM SCT015
     FM272300 31004KT P6SM BKN080
     FM280600 10004KT P6SM -SHRA OVC050
     FM281000 06004KT P6SM -SHRA OVC030=

USA.gov is the U.S. government's official web portal to all federal, state and local government web resources and services.